createdAt,value
2022-09-25T00:00:59.367Z,2.05
2022-09-25T00:03:29.550Z,1.87
2022-09-25T00:06:09.780Z,2.08
2022-09-25T00:08:37.118Z,1.77
2022-09-25T00:11:26.476Z,1.95
2022-09-25T00:13:54.416Z,1.90
2022-09-25T00:16:23.886Z,1.83
2022-09-25T00:19:09.371Z,2.83
2022-09-25T00:21:37.226Z,1.87
2022-09-25T00:24:06.847Z,2.28
2022-09-25T00:26:38.186Z,2.25
2022-09-25T00:29:06.681Z,1.83
2022-09-25T00:31:35.510Z,2.00
2022-09-25T00:34:05.342Z,2.03
2022-09-25T00:36:33.801Z,2.15
2022-09-25T00:39:01.064Z,2.25
2022-09-25T00:41:32.703Z,1.73
2022-09-25T00:44:01.530Z,2.08
2022-09-25T00:46:33.914Z,2.40
2022-09-25T00:49:17.414Z,1.73
2022-09-25T00:51:52.709Z,1.87
2022-09-25T00:54:31.758Z,1.55
2022-09-25T00:57:03.483Z,2.65
2022-09-25T00:59:34.923Z,2.15
2022-09-25T01:02:02.359Z,2.40
2022-09-25T01:04:32.934Z,2.10
2022-09-25T01:07:00.256Z,1.90
2022-09-25T01:09:28.284Z,1.80
2022-09-25T01:11:55.501Z,2.03
2022-09-25T01:14:22.692Z,2.30
2022-09-25T01:17:04.670Z,1.65
2022-09-25T01:20:18.071Z,1.92
2022-09-25T01:23:03.050Z,2.00
2022-09-25T01:26:15.819Z,1.62
2022-09-25T01:29:03.609Z,1.87
2022-09-25T01:31:39.011Z,1.60
2022-09-25T01:34:14.226Z,1.77
2022-09-25T01:36:51.277Z,1.80
2022-09-25T01:39:22.861Z,1.80
2022-09-25T01:41:57.524Z,1.60
2022-09-25T01:44:32.504Z,1.90
2022-09-25T01:47:15.184Z,2.00
2022-09-25T01:49:55.700Z,1.70
2022-09-25T01:52:26.465Z,1.83
2022-09-25T01:55:05.428Z,2.10
2022-09-25T01:57:45.826Z,1.48
2022-09-25T02:00:22.569Z,1.83
2022-09-25T02:02:55.461Z,2.10
2022-09-25T02:05:33.960Z,1.80
2022-09-25T02:08:08.387Z,2.33
2022-09-25T02:10:40.130Z,1.65
2022-09-25T02:13:13.280Z,1.70
2022-09-25T02:15:46.076Z,1.58
2022-09-25T02:18:36.039Z,1.77
2022-09-25T02:21:08.586Z,2.47
2022-09-25T02:23:53.112Z,1.35
2022-09-25T02:26:38.510Z,1.40
2022-09-25T02:29:06.280Z,1.83
2022-09-25T02:31:39.002Z,2.20
2022-09-25T02:34:12.150Z,1.70
2022-09-25T02:36:43.252Z,1.40
2022-09-25T02:39:11.652Z,1.65
2022-09-25T02:41:42.052Z,1.65
2022-09-25T02:44:26.934Z,1.70
2022-09-25T02:47:14.532Z,1.87
2022-09-25T02:52:21.097Z,1.40
2022-09-25T02:55:19.794Z,1.60
2022-09-25T02:57:54.466Z,1.60
2022-09-25T03:00:23.681Z,1.60
2022-09-25T03:02:58.507Z,1.85
2022-09-25T03:05:26.443Z,1.65
2022-09-25T03:10:38.464Z,1.55
2022-09-25T03:13:26.530Z,1.73
2022-09-25T03:15:59.007Z,1.60
2022-09-25T03:18:26.922Z,1.60
2022-09-25T03:20:53.888Z,1.80
2022-09-25T03:23:20.994Z,1.95
2022-09-25T03:25:50.282Z,1.60
2022-09-25T03:28:17.660Z,1.58
2022-09-25T03:30:45.727Z,1.42
2022-09-25T03:41:08.920Z,1.80
2022-09-25T03:43:37.375Z,1.45
2022-09-25T03:46:06.453Z,1.70
2022-09-25T03:48:34.125Z,1.50
2022-09-25T03:51:01.331Z,1.65
2022-09-25T03:53:32.348Z,1.67
2022-09-25T03:56:13.244Z,1.45
2022-09-25T03:58:40.827Z,1.60
2022-09-25T04:01:08.138Z,1.73
2022-09-25T04:03:35.326Z,1.65
2022-09-25T04:06:04.982Z,1.50
2022-09-25T04:08:34.003Z,1.48
2022-09-25T04:11:02.214Z,1.70
2022-09-25T04:13:36.434Z,1.60
2022-09-25T04:16:05.735Z,1.40
2022-09-25T04:18:33.033Z,1.65
2022-09-25T04:21:01.269Z,1.05
2022-09-25T04:31:21.605Z,1.85
2022-09-25T04:33:48.610Z,1.42
2022-09-25T04:36:16.901Z,1.10
2022-09-25T04:38:44.218Z,1.67
2022-09-25T04:41:11.687Z,1.62
2022-09-25T04:43:40.189Z,1.55
2022-09-25T04:46:09.346Z,1.55
2022-09-25T04:48:39.901Z,1.30
2022-09-25T04:51:16.378Z,1.77
2022-09-25T04:53:49.806Z,2.05
2022-09-25T04:56:17.149Z,1.62
2022-09-25T04:58:49.360Z,1.87
2022-09-25T05:01:18.487Z,1.30
2022-09-25T05:03:50.171Z,1.40
2022-09-25T05:06:17.354Z,1.52
2022-09-25T05:08:44.304Z,1.37
2022-09-25T05:11:11.529Z,1.48
2022-09-25T05:13:38.473Z,0.93
2022-09-25T05:16:05.728Z,0.90
2022-09-25T05:18:32.751Z,1.52
2022-09-25T05:21:04.684Z,1.55
2022-09-25T05:23:31.614Z,1.20
2022-09-25T05:26:00.758Z,1.73
2022-09-25T05:28:30.787Z,2.65
2022-09-25T05:31:07.537Z,1.65
2022-09-25T05:33:35.747Z,1.65
2022-09-25T05:36:06.941Z,1.35
2022-09-25T05:38:35.128Z,1.87
2022-09-25T05:41:11.847Z,1.35
2022-09-25T05:43:41.425Z,1.10
2022-09-25T05:46:08.868Z,1.35
2022-09-25T05:48:36.414Z,1.42
2022-09-25T05:51:04.061Z,1.48
2022-09-25T05:53:31.086Z,1.48
2022-09-25T05:56:00.646Z,1.67
2022-09-25T05:58:29.077Z,1.20
2022-09-25T06:00:59.633Z,1.17
2022-09-25T06:03:29.519Z,1.73
2022-09-25T06:06:01.234Z,1.20
2022-09-25T06:08:32.493Z,1.40
2022-09-25T06:11:01.597Z,1.20
2022-09-25T06:13:32.082Z,1.08
2022-09-25T06:15:59.533Z,1.12
2022-09-25T06:18:27.225Z,1.23
2022-09-25T06:21:01.616Z,1.17
2022-09-25T06:23:29.413Z,1.12
2022-09-25T06:26:01.636Z,1.50
2022-09-25T06:28:30.005Z,0.98
2022-09-25T06:30:59.619Z,1.30
2022-09-25T06:33:26.548Z,0.93
2022-09-25T06:35:53.480Z,1.23
2022-09-25T06:38:20.454Z,0.77
2022-09-25T06:40:47.459Z,1.50
2022-09-25T06:43:16.990Z,1.20
2022-09-25T06:45:44.422Z,1.62
2022-09-25T06:48:16.349Z,0.98
2022-09-25T06:50:52.397Z,1.02
2022-09-25T06:53:21.152Z,1.10
2022-09-25T06:55:49.278Z,0.95
2022-09-25T06:58:19.723Z,0.80
2022-09-25T07:00:51.853Z,1.42
2022-09-25T07:03:37.359Z,0.90
2022-09-25T07:06:06.612Z,0.82
2022-09-25T07:08:34.327Z,0.85
2022-09-25T07:11:02.098Z,0.80
2022-09-25T07:13:31.669Z,0.70
2022-09-25T07:16:00.781Z,0.80
2022-09-25T07:18:29.323Z,0.57
2022-09-25T07:21:09.018Z,0.80
2022-09-25T07:23:36.552Z,0.80
2022-09-25T07:26:08.288Z,0.77
2022-09-25T07:28:36.097Z,0.80
2022-09-25T07:31:18.145Z,0.88
2022-09-25T07:33:46.273Z,0.80
2022-09-25T07:36:14.961Z,0.70
2022-09-25T07:38:42.304Z,0.57
2022-09-25T07:41:13.605Z,0.80
2022-09-25T07:43:43.585Z,0.62
2022-09-25T07:46:11.223Z,0.50
2022-09-25T07:48:38.495Z,0.68
2022-09-25T07:51:11.003Z,0.82
2022-09-25T07:53:38.961Z,0.80
2022-09-25T07:56:07.062Z,1.08
2022-09-25T07:58:38.051Z,0.85
2022-09-25T08:01:07.663Z,0.88
2022-09-25T08:03:34.781Z,0.77
2022-09-25T08:06:13.441Z,0.80
2022-09-25T08:08:41.692Z,0.95
2022-09-25T08:11:14.673Z,0.70
2022-09-25T08:13:42.429Z,0.80
2022-09-25T08:16:15.118Z,0.60
2022-09-25T08:18:44.081Z,1.00
2022-09-25T08:21:14.340Z,1.00
2022-09-25T08:23:47.423Z,0.77
2022-09-25T08:26:18.769Z,0.75
2022-09-25T08:28:46.113Z,0.70
2022-09-25T08:31:14.897Z,0.60
2022-09-25T08:33:46.864Z,1.05
2022-09-25T08:36:14.362Z,0.60
2022-09-25T08:38:42.108Z,0.80
2022-09-25T08:41:32.846Z,0.70
2022-09-25T08:44:23.792Z,0.43
2022-09-25T08:47:23.641Z,0.70
2022-09-25T08:50:14.485Z,0.95
2022-09-25T08:52:44.364Z,0.73
2022-09-25T08:55:22.863Z,0.52
2022-09-25T08:57:55.622Z,0.52
2022-09-25T09:00:24.338Z,0.62
2022-09-25T09:02:55.895Z,0.40
2022-09-25T09:05:30.721Z,0.65
2022-09-25T09:08:03.664Z,0.60
2022-09-25T09:10:43.360Z,0.52
2022-09-25T09:13:34.354Z,0.50
2022-09-25T09:16:35.681Z,0.50
2022-09-25T09:19:06.277Z,0.32
2022-09-25T09:21:44.126Z,0.20
2022-09-25T09:24:18.307Z,0.40
2022-09-25T09:27:01.374Z,0.40
2022-09-25T09:30:09.210Z,0.50
2022-09-25T09:32:57.003Z,0.40
2022-09-25T09:36:02.507Z,0.40
2022-09-25T09:38:57.089Z,0.40
2022-09-25T09:41:35.300Z,0.15
2022-09-25T09:44:08.368Z,0.30
2022-09-25T09:46:50.913Z,0.40
2022-09-25T09:49:38.194Z,0.40
2022-09-25T09:52:12.924Z,0.35
2022-09-25T09:55:01.841Z,0.35
2022-09-25T09:57:41.451Z,0.40
2022-09-25T10:00:16.549Z,0.30
2022-09-25T10:02:46.388Z,0.45
2022-09-25T10:05:37.848Z,0.25
2022-09-25T10:08:04.970Z,0.52
2022-09-25T10:10:56.077Z,0.10
2022-09-25T10:13:38.613Z,0.20
2022-09-25T10:16:11.615Z,0.30
2022-09-25T10:18:53.376Z,0.35
2022-09-25T10:21:27.574Z,0.20
2022-09-25T10:24:03.266Z,0.20
2022-09-25T10:26:33.371Z,0.20
2022-09-25T10:29:02.535Z,0.00
2022-09-25T10:31:40.886Z,0.25
2022-09-25T10:34:14.065Z,0.13
2022-09-25T10:36:43.803Z,0.10
2022-09-25T10:39:45.830Z,0.30
2022-09-25T10:42:36.055Z,0.20
2022-09-25T10:45:27.280Z,0.17
2022-09-25T10:48:12.821Z,0.10
2022-09-25T10:50:40.196Z,0.20
2022-09-25T10:53:28.389Z,0.30
2022-09-25T10:56:01.898Z,0.30
2022-09-25T10:58:37.109Z,0.30
2022-09-25T11:01:06.850Z,0.47
2022-09-25T11:03:53.664Z,0.10
2022-09-25T11:06:25.142Z,0.20
2022-09-25T11:09:05.436Z,0.25
2022-09-25T11:11:32.463Z,0.40
2022-09-25T11:14:03.377Z,0.43
2022-09-25T11:16:54.604Z,0.45
2022-09-25T11:19:39.659Z,0.40
2022-09-25T11:22:33.396Z,0.50
2022-09-25T11:25:36.716Z,0.30
2022-09-25T11:28:20.244Z,0.30
2022-09-25T11:30:55.913Z,0.20
2022-09-25T11:33:56.466Z,0.68
2022-09-25T11:36:44.018Z,0.30
2022-09-25T11:39:39.907Z,0.40
2022-09-25T11:42:18.872Z,0.40
2022-09-25T11:44:57.478Z,0.40
2022-09-25T11:47:28.622Z,0.40
2022-09-25T11:49:58.790Z,0.40
2022-09-25T11:52:40.213Z,0.50
2022-09-25T11:55:43.369Z,0.28
2022-09-25T11:58:10.712Z,0.40
2022-09-25T12:00:56.751Z,0.32
2022-09-25T12:03:53.948Z,0.35
2022-09-25T12:06:38.740Z,0.40
2022-09-25T12:09:32.509Z,0.30
2022-09-25T12:12:31.405Z,0.20
2022-09-25T12:15:23.727Z,0.20
2022-09-25T12:18:09.851Z,0.30
2022-09-25T12:20:52.781Z,0.37
2022-09-25T12:23:36.408Z,0.35
2022-09-25T12:26:36.504Z,0.30
2022-09-25T12:29:15.114Z,0.25
2022-09-25T12:31:48.182Z,0.30
2022-09-25T12:34:37.835Z,0.45
2022-09-25T12:37:40.215Z,0.20
2022-09-25T12:40:17.131Z,0.30
2022-09-25T12:43:23.825Z,0.20
2022-09-25T12:46:46.964Z,0.40
2022-09-25T12:49:20.151Z,0.30
2022-09-25T12:51:52.672Z,0.40
2022-09-25T12:54:34.682Z,0.32
2022-09-25T12:57:13.968Z,0.40
2022-09-25T12:59:48.626Z,0.60
2022-09-25T13:02:36.515Z,0.40
2022-09-25T13:05:09.587Z,0.57
2022-09-25T13:07:45.657Z,0.40
2022-09-25T13:10:22.012Z,0.40
2022-09-25T13:12:51.628Z,0.40
2022-09-25T13:15:40.060Z,0.70
2022-09-25T13:18:13.214Z,0.40
2022-09-25T13:20:42.184Z,0.60
2022-09-25T13:23:16.462Z,0.40
2022-09-25T13:26:02.188Z,0.47
2022-09-25T13:28:37.090Z,0.50
2022-09-25T13:31:22.340Z,0.70
2022-09-25T13:33:57.585Z,0.30
2022-09-25T13:36:25.317Z,0.65
2022-09-25T13:39:37.192Z,0.43
2022-09-25T13:42:08.855Z,0.37
2022-09-25T13:44:42.540Z,0.60
2022-09-25T13:47:24.493Z,0.50
2022-09-25T13:49:52.648Z,0.50
2022-09-25T13:52:38.753Z,0.50
2022-09-25T13:55:24.470Z,0.55
2022-09-25T13:58:00.957Z,0.40
2022-09-25T14:00:38.457Z,0.45
2022-09-25T14:03:06.012Z,0.60
2022-09-25T14:05:37.142Z,0.60
2022-09-25T14:08:12.682Z,0.50
2022-09-25T14:10:54.502Z,0.50
2022-09-25T14:13:23.697Z,0.40
2022-09-25T14:15:51.875Z,0.50
2022-09-25T14:18:21.565Z,0.50
2022-09-25T14:20:52.029Z,0.40
2022-09-25T14:23:26.241Z,0.60
2022-09-25T14:26:18.423Z,0.32
2022-09-25T14:28:47.217Z,0.50
2022-09-25T14:31:30.327Z,0.45
2022-09-25T14:34:28.395Z,0.30
2022-09-25T14:37:05.175Z,0.47
2022-09-25T14:39:44.163Z,0.50
2022-09-25T14:42:26.393Z,0.40
2022-09-25T14:45:27.043Z,0.28
2022-09-25T14:47:59.811Z,0.30
2022-09-25T14:50:32.090Z,0.40
2022-09-25T14:53:08.395Z,0.28
2022-09-25T14:55:39.543Z,0.40
2022-09-25T14:58:15.911Z,0.28
2022-09-25T15:00:48.322Z,0.40
2022-09-25T15:03:19.226Z,0.70
2022-09-25T15:05:48.325Z,0.47
2022-09-25T15:08:34.677Z,0.43
2022-09-25T15:11:17.510Z,0.40
2022-09-25T15:13:45.350Z,0.40
2022-09-25T15:16:40.734Z,0.30
2022-09-25T15:19:22.834Z,0.50
2022-09-25T15:21:54.046Z,0.73
2022-09-25T15:24:27.765Z,0.60
2022-09-25T15:27:05.148Z,0.50
2022-09-25T15:29:42.518Z,0.50
2022-09-25T15:32:39.717Z,0.60
2022-09-25T15:35:23.716Z,0.70
2022-09-25T15:38:01.535Z,0.88
2022-09-25T15:40:28.924Z,0.90
2022-09-25T15:42:56.866Z,0.60
2022-09-25T15:45:45.197Z,0.60
2022-09-25T15:48:23.202Z,1.10
2022-09-25T15:50:51.284Z,0.88
2022-09-25T15:53:28.276Z,0.88
2022-09-25T15:56:24.584Z,1.15
2022-09-25T15:58:53.340Z,0.93
2022-09-25T16:01:45.962Z,0.80
2022-09-25T16:04:46.054Z,0.80
2022-09-25T16:07:33.755Z,0.70
2022-09-25T16:10:09.211Z,0.60
2022-09-25T16:12:42.554Z,0.80
2022-09-25T16:15:27.733Z,0.80
2022-09-25T16:18:05.423Z,0.70
2022-09-25T16:20:36.333Z,0.80
2022-09-25T16:23:06.724Z,0.60
2022-09-25T16:25:36.675Z,0.40
2022-09-25T16:28:13.861Z,0.60
2022-09-25T16:30:48.576Z,0.50
2022-09-25T16:33:27.106Z,0.40
2022-09-25T16:36:16.077Z,0.60
2022-09-25T16:38:45.169Z,0.65
2022-09-25T16:41:12.003Z,0.68
2022-09-25T16:43:39.755Z,0.70
2022-09-25T16:46:32.961Z,0.82
2022-09-25T16:49:01.501Z,0.50
2022-09-25T16:51:33.656Z,0.60
2022-09-25T16:54:01.272Z,1.67
2022-09-25T16:56:31.212Z,0.65
2022-09-25T16:58:59.085Z,0.70
2022-09-25T17:01:28.358Z,0.60
2022-09-25T17:04:00.128Z,0.50
2022-09-25T17:06:30.440Z,2.75
2022-09-25T17:08:59.529Z,0.62
2022-09-25T17:11:26.586Z,0.60
2022-09-25T17:13:53.574Z,0.90
2022-09-25T17:16:20.511Z,0.65
2022-09-25T17:18:47.469Z,0.43
2022-09-25T17:21:15.837Z,0.50
2022-09-25T17:23:44.114Z,0.50
2022-09-25T17:26:23.320Z,0.50
2022-09-25T17:28:51.276Z,0.50
2022-09-25T17:31:20.768Z,0.50
2022-09-25T17:33:50.790Z,0.47
2022-09-25T17:36:18.230Z,0.37
2022-09-25T17:38:45.199Z,0.30
2022-09-25T17:41:32.889Z,0.80
2022-09-25T17:44:00.152Z,0.40
2022-09-25T17:46:27.542Z,0.40
2022-09-25T17:48:54.990Z,0.50
2022-09-25T17:51:27.504Z,0.50
2022-09-25T17:53:56.202Z,0.50
2022-09-25T17:56:24.810Z,0.30
2022-09-25T17:58:54.960Z,0.40
2022-09-25T18:01:23.805Z,0.25
2022-09-25T18:03:56.593Z,0.50
2022-09-25T18:06:24.990Z,0.35
2022-09-25T18:08:52.743Z,0.30
2022-09-25T18:11:19.989Z,0.20
2022-09-25T18:13:47.367Z,0.25
2022-09-25T18:16:19.304Z,0.10
2022-09-25T18:19:05.234Z,0.20
2022-09-25T18:21:51.136Z,0.17
2022-09-25T18:24:18.253Z,0.10
2022-09-25T18:26:45.802Z,0.10
2022-09-25T18:29:17.203Z,0.10
2022-09-25T18:31:45.382Z,0.00
2022-09-25T18:34:12.692Z,0.00
2022-09-25T18:36:39.669Z,0.10
2022-09-25T18:39:06.720Z,0.20
2022-09-25T18:41:39.829Z,0.10
2022-09-25T18:44:09.508Z,0.10
2022-09-25T18:46:39.793Z,0.10
2022-09-25T18:49:07.568Z,0.20
2022-09-25T18:51:35.069Z,0.20
2022-09-25T18:54:03.465Z,0.20
2022-09-25T18:56:32.359Z,0.10
2022-09-25T18:59:00.072Z,0.20
2022-09-25T19:01:27.179Z,0.10
2022-09-25T19:03:54.414Z,0.10
2022-09-25T19:06:21.609Z,0.10
2022-09-25T19:08:56.814Z,0.10
2022-09-25T19:11:25.857Z,0.08
2022-09-25T19:13:53.198Z,0.10
2022-09-25T19:16:21.168Z,0.20
2022-09-25T19:18:50.221Z,0.20
2022-09-25T19:21:21.245Z,0.20
2022-09-25T19:23:49.296Z,0.13
2022-09-25T19:26:19.782Z,0.10
2022-09-25T19:28:46.760Z,0.10
2022-09-25T19:31:19.250Z,0.20
2022-09-25T19:33:47.100Z,0.40
2022-09-25T19:36:20.045Z,0.30
2022-09-25T19:38:47.883Z,0.40
2022-09-25T19:41:21.551Z,0.45
2022-09-25T19:43:48.677Z,0.17
2022-09-25T19:46:19.946Z,0.20
2022-09-25T19:48:48.704Z,0.20
2022-09-25T19:51:17.664Z,0.20
2022-09-25T19:53:46.199Z,0.22
2022-09-25T19:56:13.823Z,0.10
2022-09-25T19:58:41.441Z,0.40
2022-09-25T20:01:21.168Z,0.32
2022-09-25T20:03:48.398Z,0.40
2022-09-25T20:06:17.288Z,0.80
2022-09-25T20:08:44.909Z,0.80
2022-09-25T20:11:22.510Z,1.80
2022-09-25T20:13:51.602Z,1.60
2022-09-25T20:16:21.625Z,1.85
2022-09-25T20:18:53.562Z,1.45
2022-09-25T20:21:23.228Z,2.58
2022-09-25T20:23:55.628Z,1.75
2022-09-25T20:26:26.219Z,2.45
2022-09-25T20:29:05.336Z,2.95
2022-09-25T20:31:35.260Z,2.15
2022-09-25T20:34:02.452Z,2.58
2022-09-25T20:36:29.543Z,2.10
2022-09-25T20:38:58.002Z,2.20
2022-09-25T20:41:26.232Z,3.60
2022-09-25T20:43:55.892Z,2.10
2022-09-25T20:46:24.085Z,2.28
2022-09-25T20:48:52.600Z,1.90
2022-09-25T20:51:27.059Z,2.70
2022-09-25T20:53:56.891Z,2.47
2022-09-25T20:56:24.396Z,2.25
2022-09-25T20:58:54.670Z,2.10
2022-09-25T21:01:24.451Z,2.03
2022-09-25T21:03:52.629Z,2.92
2022-09-25T21:06:25.420Z,2.12
2022-09-25T21:08:54.631Z,2.97
2022-09-25T21:11:23.231Z,2.50
2022-09-25T21:13:52.185Z,2.60
2022-09-25T21:16:20.588Z,3.10
2022-09-25T21:18:53.393Z,2.37
2022-09-25T21:21:20.736Z,2.90
2022-09-25T21:23:54.293Z,3.20
2022-09-25T21:26:23.752Z,2.72
2022-09-25T21:28:53.280Z,2.65
2022-09-25T21:31:22.901Z,2.97
2022-09-25T21:33:55.256Z,3.42
2022-09-25T21:36:23.392Z,2.42
2022-09-25T21:38:50.857Z,2.67
2022-09-25T21:41:23.145Z,2.62
2022-09-25T21:43:58.811Z,2.62
2022-09-25T21:46:27.073Z,4.00
2022-09-25T21:48:59.700Z,2.67
2022-09-25T21:51:30.352Z,3.80
2022-09-25T21:53:57.731Z,3.28
2022-09-25T21:56:26.664Z,2.83
2022-09-25T21:58:55.754Z,3.22
2022-09-25T22:01:26.008Z,2.87
2022-09-25T22:03:55.497Z,3.95
2022-09-25T22:06:26.440Z,3.65
2022-09-25T22:08:58.908Z,3.42
2022-09-25T22:11:26.667Z,2.70
2022-09-25T22:13:55.852Z,2.97
2022-09-25T22:16:28.508Z,2.42
2022-09-25T22:19:01.386Z,2.95
2022-09-25T22:21:30.782Z,3.25
2022-09-25T22:23:58.854Z,2.28
2022-09-25T22:26:27.458Z,3.12
2022-09-25T22:28:54.840Z,4.72
2022-09-25T22:31:26.964Z,4.57
2022-09-25T22:33:59.788Z,4.12
2022-09-25T22:36:27.457Z,4.47
2022-09-25T22:38:55.156Z,4.62
2022-09-25T22:41:22.756Z,4.80
2022-09-25T22:43:51.695Z,5.28
2022-09-25T22:46:19.953Z,5.05
2022-09-25T22:48:47.192Z,8.15
2022-09-25T22:51:16.629Z,5.35
2022-09-25T22:53:44.002Z,5.62
2022-09-25T22:56:12.403Z,6.70
2022-09-25T22:58:39.533Z,6.25
2022-09-25T23:01:09.919Z,7.53
2022-09-25T23:03:37.015Z,7.53
2022-09-25T23:06:04.471Z,7.45
2022-09-25T23:08:31.698Z,6.72
2022-09-25T23:11:07.586Z,8.70
2022-09-25T23:13:35.864Z,6.72
2022-09-25T23:16:08.061Z,7.78
2022-09-25T23:18:36.891Z,7.62
2022-09-25T23:21:04.538Z,8.13
2022-09-25T23:23:31.528Z,7.20
2022-09-25T23:26:06.106Z,7.78
2022-09-25T23:28:38.225Z,7.57
2022-09-25T23:31:09.769Z,8.10
2022-09-25T23:33:38.025Z,7.00
2022-09-25T23:36:10.984Z,7.30
2022-09-25T23:38:38.278Z,7.85
2022-09-25T23:41:26.377Z,8.30
2022-09-25T23:43:54.748Z,6.50
2022-09-25T23:46:23.797Z,5.97
2022-09-25T23:48:51.718Z,6.35
2022-09-25T23:51:19.708Z,5.97
2022-09-25T23:53:47.351Z,5.62
2022-09-25T23:56:16.470Z,5.35
2022-09-25T23:58:43.611Z,4.55
